Council Bluffs, Iowa
Current Conditions -  °F | °C
As of 6:52 PM on Friday 19 Dec 2014 (Local Time) from KOMA Reporting Station
Haze Haze  
Wind Chill: 24°   Ceiling: 1000
Heat Index: 32°   Visibility: 3mi
Dew Point: 29°   Wind: 10mph
Humidity: 88%   Direction: 160°SSE
Pressure: 30.17"   Gusts: NA
Location:  41.26°N, 95.85°W
Report Text: KOMA 200052Z 16009KT 3SM BR FEW007 OVC010 00/M02 A3017 RMK AO2 SLP226 T00001017
Loading
Personal Weather Stations






























Interactive Weather Map New forecast layout! Learn more

10-Day Weather Forecast

Advertisements
Track Severe Weather on mobile